Time;durP1;ratioP1;P1;durP2;ratioP2;P2;SDS_P1;SDS_P2;PMS_P1;PMS_P2;Temp;Humidity;BMP_temperature;BMP_pressure;BME280_temperature;BME280_humidity;BME280_pressure;Samples;Min_cycle;Max_cycle;Signal;HPM_P1;HPM_P2
2022/11/08 00:02:30;;;;;;;72.15;45.25;;;;;;;4.79;80.78;100428.02;1950324;91;33822;-64
2022/11/08 00:15:37;;;;;;;79.25;49.85;;;;;;;4.71;81.43;100440.14;1918999;92;32182;-64
2022/11/08 00:18:38;;;;;;;90.17;52.17;;;;;;;4.69;81.42;100443.28;1950608;91;34381;-64
2022/11/08 00:21:41;;;;;;;91.57;51.33;;;;;;;4.65;81.32;100443.40;1950668;91;29693;-63
2022/11/08 00:24:43;;;;;;;84.37;49.67;;;;;;;4.62;81.39;100448.77;2059068;82;27622;-60
2022/11/08 00:27:45;;;;;;;91.30;52.80;;;;;;;4.59;81.41;100442.20;2070727;86;29909;-58
2022/11/08 00:30:46;;;;;;;93.45;54.65;;;;;;;4.56;81.55;100437.84;2105667;84;32430;-58
2022/11/08 00:33:49;;;;;;;101.90;56.42;;;;;;;4.55;81.92;100437.42;2071141;85;33320;-59
2022/11/08 00:36:52;;;;;;;100.53;56.65;;;;;;;4.54;82.00;100438.33;2106075;84;29770;-59
2022/11/08 00:39:53;;;;;;;95.40;56.58;;;;;;;4.52;82.07;100438.38;2070871;85;27659;-59
2022/11/08 00:42:55;;;;;;;92.70;54.00;;;;;;;4.51;81.93;100439.28;2106312;84;29065;-60
2022/11/08 00:45:56;;;;;;;85.50;51.58;;;;;;;4.50;81.82;100444.17;2071453;85;30999;-61
2022/11/08 00:48:58;;;;;;;80.45;47.93;;;;;;;4.46;81.70;100441.63;2105842;84;34298;-58
2022/11/08 00:51:59;;;;;;;97.12;54.60;;;;;;;4.44;81.72;100452.72;2071228;86;29697;-59
2022/11/08 00:55:05;;;;;;;89.22;50.98;;;;;;;4.40;81.77;100443.49;2106262;84;27793;-68
2022/11/08 00:58:07;;;;;;;79.97;49.10;;;;;;;4.38;81.85;100438.67;2070779;86;30002;-59
2022/11/08 01:01:12;;;;;;;79.55;48.58;;;;;;;4.35;81.69;100441.38;2105718;84;32425;-58
2022/11/08 01:04:16;;;;;;;82.67;50.58;;;;;;;4.32;81.58;100433.48;2071220;86;32996;-58
2022/11/08 01:07:17;;;;;;;89.10;50.78;;;;;;;4.30;81.59;100431.78;2105879;84;29482;-59
2022/11/08 01:10:19;;;;;;;86.08;48.95;;;;;;;4.27;81.62;100431.41;2070977;85;27731;-58
2022/11/08 01:13:21;;;;;;;84.62;50.55;;;;;;;4.24;81.60;100429.67;2105664;84;29092;-58
2022/11/08 01:16:26;;;;;;;74.72;46.63;;;;;;;4.22;81.64;100424.00;2070819;85;31840;-57
2022/11/08 01:19:27;;;;;;;56.48;36.35;;;;;;;4.20;81.57;100417.84;2106270;84;33813;-59
2022/11/08 01:22:28;;;;;;;74.55;46.28;;;;;;;4.16;81.54;100427.66;2064586;86;29416;-59
2022/11/08 01:25:30;;;;;;;77.70;44.85;;;;;;;4.12;81.56;100424.64;2043466;86;27716;-59
2022/11/08 01:28:32;;;;;;;80.10;45.65;;;;;;;4.09;81.64;100418.96;2043620;87;28618;-66
2022/11/08 01:31:33;;;;;;;71.47;44.55;;;;;;;4.07;81.76;100416.79;2055115;85;32231;-59
2022/11/08 01:34:35;;;;;;;71.33;42.48;;;;;;;4.02;81.88;100407.19;2077855;85;34194;-59
2022/11/08 01:37:36;;;;;;;73.00;42.48;;;;;;;4.07;82.05;100426.07;2077701;85;29359;-60
2022/11/08 01:40:43;;;;;;;82.12;46.37;;;;;;;4.06;82.16;100428.30;2028797;85;27710;-57
2022/11/08 01:43:54;;;;;;;80.07;45.55;;;;;;;4.08;82.34;100429.58;2078045;85;28641;-58
2022/11/08 01:46:56;;;;;;;80.20;47.30;;;;;;;4.10;82.51;100433.08;2078172;85;31389;-58
2022/11/08 01:50:13;;;;;;;71.50;42.27;;;;;;;4.11;82.70;100442.78;2077898;85;33325;-58
2022/11/08 01:53:14;;;;;;;89.70;50.92;;;;;;;4.11;82.56;100434.82;2077720;85;30461;-62
2022/11/08 01:56:17;;;;;;;106.07;52.23;;;;;;;4.10;82.55;100435.72;2077924;85;27742;-59
2022/11/08 01:59:19;;;;;;;85.77;51.33;;;;;;;4.09;82.66;100432.66;2077797;85;28654;-61
2022/11/08 02:02:21;;;;;;;84.50;49.08;;;;;;;4.08;82.76;100426.49;2078123;85;31036;-58
2022/11/08 02:05:23;;;;;;;81.12;45.12;;;;;;;4.05;82.72;100427.02;2078181;85;34076;-58
2022/11/08 02:08:33;;;;;;;77.58;44.20;;;;;;;4.04;82.54;100419.50;2105861;84;29913;-60
2022/11/08 02:11:35;;;;;;;70.75;41.10;;;;;;;4.01;82.34;100418.23;2065813;85;27760;-58
2022/11/08 02:14:37;;;;;;;70.92;41.80;;;;;;;3.98;82.25;100415.64;2103825;84;30783;-58
2022/11/08 02:17:38;;;;;;;72.55;42.67;;;;;;;3.94;82.12;100411.33;2104447;84;31412;-58
2022/11/08 02:21:26;;;;;;;72.00;41.20;;;;;;;3.89;82.02;100407.89;2090241;84;32985;-58
2022/11/08 02:24:27;;;;;;;67.15;38.45;;;;;;;3.84;82.01;100406.66;2105670;84;30487;-59
2022/11/08 02:27:30;;;;;;;68.47;39.25;;;;;;;3.79;82.02;100404.11;2097905;84;28309;-58
2022/11/08 02:30:36;;;;;;;63.75;37.85;;;;;;;3.75;82.13;100397.12;2077913;85;28773;-60
2022/11/08 02:33:38;;;;;;;60.90;37.23;;;;;;;3.72;81.96;100401.15;2077522;85;32045;-58
2022/11/08 02:36:41;;;;;;;72.60;39.58;;;;;;;3.72;82.41;100403.80;2077939;85;33371;-57
2022/11/08 02:39:43;;;;;;;69.05;39.92;;;;;;;3.71;82.35;100405.16;2050022;85;30084;-58
2022/11/08 02:42:44;;;;;;;71.70;40.08;;;;;;;3.67;82.28;100401.69;2078297;85;27594;-63
2022/11/08 02:45:46;;;;;;;67.20;37.25;;;;;;;3.65;82.29;100408.34;2078013;85;29476;-58
2022/11/08 02:48:48;;;;;;;62.90;38.33;;;;;;;3.64;82.38;100407.92;2077866;85;31016;-58
2022/11/08 02:51:52;;;;;;;62.40;36.20;;;;;;;3.63;82.32;100411.47;2078097;85;33359;-59
2022/11/08 02:54:54;;;;;;;67.22;37.58;;;;;;;3.62;82.45;100409.73;2106120;84;33842;-67
2022/11/08 02:57:56;;;;;;;60.85;36.42;;;;;;;3.65;82.64;100411.00;2097756;84;27692;-58
2022/11/08 03:00:57;;;;;;;67.47;36.50;;;;;;;3.69;82.90;100406.97;2077998;85;29034;-63
2022/11/08 03:03:59;;;;;;;55.40;35.03;;;;;;;3.72;82.92;100411.75;2077804;85;30294;-58
2022/11/08 03:07:00;;;;;;;59.10;33.88;;;;;;;3.75;82.91;100406.83;2077598;85;32833;-59
2022/11/08 03:10:02;;;;;;;60.00;36.25;;;;;;;3.77;82.88;100407.24;2077349;85;29417;-66
2022/11/08 03:13:05;;;;;;;58.58;35.03;;;;;;;3.79;82.95;100406.77;2106267;84;27629;-58
2022/11/08 03:16:07;;;;;;;54.27;35.25;;;;;;;3.83;82.97;100408.89;2097778;84;29900;-58
2022/11/08 03:19:10;;;;;;;62.08;36.25;;;;;;;3.84;82.97;100407.98;2078206;85;31882;-58
2022/11/08 03:22:12;;;;;;;58.60;35.43;;;;;;;3.87;83.26;100407.04;2071285;86;33633;-58
2022/11/08 03:25:14;;;;;;;61.60;35.58;;;;;;;3.90;83.23;100410.96;2007248;87;29380;-60
2022/11/08 03:28:15;;;;;;;54.23;35.63;;;;;;;3.91;83.38;100416.69;2071136;85;27708;-59
2022/11/08 03:31:16;;;;;;;55.43;35.23;;;;;;;3.92;83.26;100416.64;2057187;86;28616;-58
2022/11/08 03:34:17;;;;;;;57.27;34.03;;;;;;;3.92;83.21;100415.78;2067770;85;31404;-59
2022/11/08 03:37:18;;;;;;;55.00;31.25;;;;;;;3.94;83.48;100414.84;2077431;85;34185;-59
2022/11/08 03:40:20;;;;;;;57.90;33.38;;;;;;;3.94;83.51;100417.48;2077938;85;29714;-59
2022/11/08 03:43:22;;;;;;;53.58;33.30;;;;;;;3.95;83.36;100411.75;2078357;85;27550;-58
2022/11/08 03:46:23;;;;;;;59.65;33.53;;;;;;;3.93;83.34;100414.88;2077996;85;29319;-58
2022/11/08 03:49:25;;;;;;;55.80;32.35;;;;;;;3.91;83.20;100416.69;2078087;85;32278;-58
2022/11/08 03:52:27;;;;;;;52.45;31.77;;;;;;;3.89;83.18;100410.54;2077870;85;33339;-58
2022/11/08 03:55:28;;;;;;;51.77;31.75;;;;;;;3.86;83.04;100414.57;2077639;85;30620;-58
2022/11/08 03:58:29;;;;;;;54.30;32.00;;;;;;;3.85;83.24;100419.45;2077798;85;27683;-59
2022/11/08 04:01:31;;;;;;;51.98;32.90;;;;;;;3.82;83.15;100419.06;2077920;85;28688;-58
2022/11/08 04:04:32;;;;;;;58.50;34.15;;;;;;;3.81;83.31;100414.67;2078285;85;30844;-60
2022/11/08 04:07:34;;;;;;;48.13;32.40;;;;;;;3.80;83.42;100420.87;2106029;84;33630;-58
2022/11/08 04:10:35;;;;;;;51.55;33.53;;;;;;;3.78;83.36;100418.27;2090183;84;29695;-59
2022/11/08 04:16:59;;;;;;;47.58;29.07;;;;;;;3.74;83.24;100420.55;2104018;84;29990;-59
2022/11/08 04:23:20;;;;;;;43.85;28.38;;;;;;;3.66;82.98;100409.20;2105925;84;34164;-60
2022/11/08 04:26:24;;;;;;;52.45;30.02;;;;;;;3.62;82.94;100413.70;2101870;84;29341;-58
2022/11/08 04:29:25;;;;;;;46.10;28.70;;;;;;;3.60;83.06;100419.47;2113575;84;27656;-61
2022/11/08 04:32:27;;;;;;;46.28;29.70;;;;;;;3.59;83.25;100412.89;2113854;84;28415;-58
2022/11/08 04:35:29;;;;;;;57.17;34.27;;;;;;;3.57;83.22;100415.55;2113808;84;32259;-59
2022/11/08 04:38:31;;;;;;;59.77;36.03;;;;;;;3.56;83.19;100411.16;2113785;84;33325;-58
2022/11/08 04:41:32;;;;;;;44.73;30.12;;;;;;;3.56;83.31;100407.64;2114182;84;29717;-60
2022/11/08 04:44:33;;;;;;;51.48;32.23;;;;;;;3.55;83.13;100417.81;2116000;84;27639;-58
2022/11/08 04:47:35;;;;;;;51.92;33.23;;;;;;;3.52;83.03;100413.90;2104377;84;29941;-59
2022/11/08 04:50:37;;;;;;;57.30;34.08;;;;;;;3.48;82.98;100407.80;2113682;84;31996;-58
2022/11/08 04:53:38;;;;;;;56.20;36.20;;;;;;;3.47;83.21;100412.23;2080119;85;33687;-59
2022/11/08 04:56:40;;;;;;;52.88;33.60;;;;;;;3.46;83.16;100408.27;2078462;85;29723;-58
2022/11/08 04:59:42;;;;;;;52.13;34.70;;;;;;;3.44;83.20;100412.28;2080077;85;27715;-58
2022/11/08 05:02:43;;;;;;;52.73;35.38;;;;;;;3.43;83.10;100409.21;2080534;85;28701;-59
2022/11/08 05:05:46;;;;;;;67.67;44.53;;;;;;;3.41;83.01;100413.66;2058698;86;31611;-58
2022/11/08 05:08:50;;;;;;;54.30;37.98;;;;;;;3.39;83.24;100401.36;2058163;86;27864;-61
2022/11/08 05:11:51;;;;;;;55.60;36.03;;;;;;;3.40;83.63;100403.97;2044369;85;30230;-58
2022/11/08 05:14:53;;;;;;;61.58;36.13;;;;;;;3.41;83.57;100399.52;2080442;85;27741;-58
2022/11/08 05:17:54;;;;;;;57.15;36.68;;;;;;;3.38;83.34;100399.61;2069230;85;29627;-57
2022/11/08 05:24:18;;;;;;;52.03;31.77;;;;;;;3.37;83.65;100403.16;2057771;85;34012;-72
2022/11/08 05:27:19;;;;;;;55.58;35.48;;;;;;;3.36;83.77;100400.08;2032917;86;29338;-63
2022/11/08 05:30:21;;;;;;;56.50;35.43;;;;;;;3.37;83.78;100402.69;2031255;87;27821;-63
2022/11/08 05:33:24;;;;;;;48.87;31.95;;;;;;;3.38;83.98;100407.09;2043403;86;29052;-58
2022/11/08 05:36:27;;;;;;;54.08;34.27;;;;;;;3.39;83.93;100405.33;2105940;84;32028;-58
2022/11/08 05:39:28;;;;;;;49.42;30.40;;;;;;;3.39;83.82;100405.33;2097627;84;33780;-61
2022/11/08 05:42:29;;;;;;;47.43;29.85;;;;;;;3.37;83.67;100401.83;2078020;85;30477;-60
2022/11/08 05:45:31;;;;;;;52.53;28.83;;;;;;;3.35;83.51;100407.14;2077920;85;27718;-63
2022/11/08 05:48:32;;;;;;;44.38;28.77;;;;;;;3.33;83.55;100408.50;2050245;85;29228;-59
2022/11/08 05:51:35;;;;;;;47.70;27.65;;;;;;;3.31;83.50;100408.98;2077367;85;27697;-63
2022/11/08 05:54:36;;;;;;;45.33;28.92;;;;;;;3.31;83.56;100412.09;2078014;85;33369;-63
2022/11/08 05:57:42;;;;;;;51.18;31.82;;;;;;;3.31;83.85;100412.95;2078183;85;29677;-59
2022/11/08 06:00:43;;;;;;;58.87;37.08;;;;;;;3.34;84.00;100421.27;2078374;85;27727;-65
2022/11/08 06:03:46;;;;;;;45.78;32.30;;;;;;;3.37;84.19;100419.05;2078090;85;28615;-59
2022/11/08 06:06:49;;;;;;;45.17;29.55;;;;;;;3.39;84.15;100415.92;2077914;85;31898;-66
2022/11/08 06:09:50;;;;;;;50.28;29.27;;;;;;;3.40;83.99;100412.34;2077953;85;33337;-58
2022/11/08 06:12:51;;;;;;;43.90;28.27;;;;;;;3.40;83.91;100411.02;2078154;85;29132;-58
2022/11/08 06:15:53;;;;;;;46.37;27.65;;;;;;;3.41;83.86;100424.25;2078465;85;27658;-58
2022/11/08 06:18:54;;;;;;;38.02;26.82;;;;;;;3.42;83.83;100423.78;2078390;85;28570;-58
2022/11/08 06:21:55;;;;;;;40.98;26.73;;;;;;;3.44;84.07;100430.82;2104430;84;30967;-57
2022/11/08 06:24:57;;;;;;;41.08;26.85;;;;;;;3.45;83.96;100428.59;2050625;85;34166;-57
2022/11/08 06:27:59;;;;;;;40.83;26.97;;;;;;;3.48;84.00;100428.98;2077658;85;29322;-57
2022/11/08 06:31:02;;;;;;;51.90;32.08;;;;;;;3.50;84.13;100425.39;2077976;85;27691;-57
2022/11/08 06:34:03;;;;;;;48.80;29.42;;;;;;;3.55;84.19;100431.06;2078154;85;28909;-58
2022/11/08 06:37:05;;;;;;;41.63;27.48;;;;;;;3.59;84.27;100432.30;2078245;85;32185;-61
2022/11/08 06:40:09;;;;;;;42.58;28.10;;;;;;;3.64;84.38;100430.44;2077934;85;34355;-57
2022/11/08 06:43:11;;;;;;;48.10;28.45;;;;;;;3.70;84.44;100428.59;2102389;84;29629;-64
2022/11/08 06:46:12;;;;;;;40.45;26.93;;;;;;;3.76;84.54;100433.75;2077940;85;27746;-58
2022/11/08 06:49:14;;;;;;;38.83;25.15;;;;;;;3.82;84.56;100427.45;2078327;85;29441;-57
2022/11/08 06:52:16;;;;;;;38.50;25.85;;;;;;;3.89;84.80;100430.41;2077912;85;31179;-57
2022/11/08 06:55:17;;;;;;;42.30;26.27;;;;;;;3.95;84.95;100425.86;2078752;85;32986;-57
2022/11/08 06:58:18;;;;;;;35.25;24.12;;;;;;;4.05;85.07;100433.64;2077913;85;29083;-58
2022/11/08 07:01:19;;;;;;;34.65;23.77;;;;;;;4.15;85.26;100436.95;2078408;85;27733;-60
2022/11/08 07:04:21;;;;;;;35.98;24.07;;;;;;;4.24;85.53;100437.63;2099713;84;29111;-57
2022/11/08 07:07:22;;;;;;;38.98;23.73;;;;;;;4.35;85.58;100446.69;2065148;85;31426;-59
2022/11/08 07:10:26;;;;;;;35.88;24.43;;;;;;;4.47;85.71;100448.20;2063090;86;34193;-60
2022/11/08 07:13:27;;;;;;;47.90;25.97;;;;;;;4.63;85.97;100450.08;2069076;86;29656;-58
2022/11/08 07:16:29;;;;;;;39.85;25.32;;;;;;;4.79;86.10;100443.95;2071566;86;27799;-58
2022/11/08 07:19:30;;;;;;;44.35;25.12;;;;;;;4.98;86.37;100438.20;2049942;86;29878;-58
2022/11/08 07:22:31;;;;;;;37.50;25.05;;;;;;;5.19;86.53;100443.43;2045260;86;30982;-58
2022/11/08 07:25:33;;;;;;;45.50;25.80;;;;;;;5.40;86.64;100445.12;2064806;85;34087;-58
2022/11/08 07:28:35;;;;;;;45.78;25.50;;;;;;;5.60;86.64;100439.28;2104035;84;30252;-58
2022/11/08 07:31:36;;;;;;;40.80;26.05;;;;;;;5.81;86.73;100436.48;2104138;84;27676;-58
2022/11/08 07:34:37;;;;;;;43.83;25.92;;;;;;;6.03;86.82;100440.80;2071459;86;29114;-59
2022/11/08 07:37:38;;;;;;;38.20;26.20;;;;;;;6.25;86.82;100436.64;2050129;86;32374;-58
2022/11/08 07:40:40;;;;;;;42.35;24.85;;;;;;;6.48;86.89;100430.63;2071897;85;33323;-59
2022/11/08 07:43:41;;;;;;;37.33;24.85;;;;;;;6.69;86.75;100431.74;2073899;85;30020;-59
2022/11/08 07:46:43;;;;;;;39.58;23.30;;;;;;;6.92;86.69;100424.83;2084164;85;27734;-59
2022/11/08 07:49:44;;;;;;;39.75;23.65;;;;;;;7.16;86.72;100424.47;2104741;84;29860;-59
2022/11/08 07:52:50;;;;;;;33.95;23.85;;;;;;;7.39;86.72;100429.47;2091586;84;31442;-58
2022/11/08 07:55:52;;;;;;;37.55;22.73;;;;;;;7.59;86.51;100427.46;2084443;85;34094;-59
2022/11/08 07:58:54;;;;;;;36.48;22.02;;;;;;;7.78;86.36;100434.33;2106151;84;30817;-58
2022/11/08 08:01:55;;;;;;;33.20;21.33;;;;;;;7.95;86.23;100431.03;2083985;85;27752;-59
2022/11/08 08:04:57;;;;;;;31.10;20.68;;;;;;;8.16;86.30;100429.84;2084052;85;28668;-60
2022/11/08 08:07:59;;;;;;;28.50;19.23;;;;;;;8.35;86.28;100421.55;2104387;84;32324;-59
2022/11/08 08:11:01;;;;;;;32.48;19.17;;;;;;;8.52;86.09;100421.39;2083865;85;33775;-59
2022/11/08 08:14:02;;;;;;;33.10;19.23;;;;;;;8.69;85.87;100411.84;2084214;85;29638;-59
2022/11/08 08:17:03;;;;;;;31.85;19.25;;;;;;;8.85;85.79;100409.43;2106884;84;27586;-59
2022/11/08 08:20:07;;;;;;;33.25;18.48;;;;;;;9.01;85.71;100418.56;2084218;85;28621;-58
2022/11/08 08:23:11;;;;;;;31.50;20.12;;;;;;;9.14;85.39;100419.38;2103481;84;32050;-59
2022/11/08 08:26:12;;;;;;;18.97;12.60;;;;;;;9.25;85.39;100419.34;2062435;86;33377;-58
2022/11/08 08:29:14;;;;;;;28.15;16.42;;;;;;;9.40;85.31;100419.61;2093322;84;30232;-58
2022/11/08 08:32:17;;;;;;;26.37;15.55;;;;;;;9.54;85.25;100428.36;2046701;86;27706;-58
2022/11/08 08:35:18;;;;;;;23.20;13.55;;;;;;;9.66;85.00;100421.16;2058661;86;29939;-59
2022/11/08 08:38:22;;;;;;;23.00;14.18;;;;;;;9.79;84.75;100421.95;2037851;86;27773;-59
2022/11/08 08:41:23;;;;;;;24.02;13.40;;;;;;;9.92;84.88;100421.79;2058996;86;33325;-60
2022/11/08 08:44:24;;;;;;;22.93;13.08;;;;;;;10.08;85.00;100420.64;2046464;86;30031;-59
2022/11/08 08:47:26;;;;;;;21.05;12.63;;;;;;;10.23;84.91;100423.06;2076412;85;27625;-61
2022/11/08 08:50:30;;;;;;;22.95;14.13;;;;;;;10.38;84.66;100419.27;2076326;85;29064;-59
2022/11/08 08:53:31;;;;;;;19.95;12.43;;;;;;;10.52;84.51;100422.19;2076189;85;31087;-59
2022/11/08 08:56:32;;;;;;;19.77;12.15;;;;;;;10.66;84.25;100426.90;2075926;85;34283;-59
2022/11/08 08:59:34;;;;;;;17.15;11.28;;;;;;;10.79;84.32;100421.34;2099830;84;29982;-58
2022/11/08 09:02:35;;;;;;;21.40;11.28;;;;;;;10.94;84.15;100419.73;2098813;84;28290;-59
2022/11/08 09:05:40;;;;;;;18.77;10.80;;;;;;;11.10;84.17;100415.80;2044375;87;29097;-59
2022/11/08 09:08:41;;;;;;;17.35;11.05;;;;;;;11.27;83.73;100414.08;2076149;84;31044;-60
2022/11/08 09:11:47;;;;;;;14.00;8.43;;;;;;;11.43;83.90;100410.61;2044325;86;34107;-58
2022/11/08 09:14:48;;;;;;;17.92;8.50;;;;;;;11.58;83.38;100406.28;2076317;85;29990;-66
2022/11/08 09:17:55;;;;;;;11.50;7.22;;;;;;;11.72;83.24;100410.44;2080041;85;27695;-59
2022/11/08 09:20:57;;;;;;;9.68;6.72;;;;;;;11.85;82.95;100413.36;2076184;85;28652;-59
2022/11/08 09:23:59;;;;;;;14.18;7.22;;;;;;;11.93;82.75;100409.77;2086621;85;31445;-58
2022/11/08 09:27:04;;;;;;;15.08;8.10;;;;;;;12.04;82.56;100413.75;2070701;85;34122;-58
2022/11/08 09:30:07;;;;;;;12.98;7.25;;;;;;;12.12;82.54;100416.41;2071284;86;30891;-66
2022/11/08 09:33:08;;;;;;;13.20;7.22;;;;;;;12.24;82.47;100410.85;2076987;84;27693;-58
2022/11/08 09:36:12;;;;;;;7.30;5.50;;;;;;;12.40;82.44;100413.54;2100188;84;29523;-58
2022/11/08 09:39:14;;;;;;;9.18;6.25;;;;;;;12.53;82.16;100414.19;2100409;84;31060;-65
2022/11/08 09:42:40;;;;;;;14.58;7.05;;;;;;;12.64;81.94;100413.59;2100277;84;33779;-58
2022/11/08 09:45:48;;;;;;;11.78;6.10;;;;;;;12.72;81.70;100408.66;2071421;86;30931;-60
2022/11/08 09:48:51;;;;;;;11.25;6.62;;;;;;;12.84;81.63;100405.73;2071750;85;27623;-60
2022/11/08 09:51:52;;;;;;;11.90;6.10;;;;;;;12.96;81.28;100402.81;2071473;86;28913;-59
2022/11/08 09:55:19;;;;;;;13.93;6.40;;;;;;;13.08;81.02;100396.70;2096107;84;32226;-58
2022/11/08 09:58:33;;;;;;;13.43;6.70;;;;;;;13.18;80.59;100395.23;2080653;85;34310;-59
2022/11/08 10:01:36;;;;;;;11.53;6.50;;;;;;;13.34;80.85;100387.59;2069455;86;30938;-59
2022/11/08 10:04:37;;;;;;;13.60;5.50;;;;;;;13.48;80.34;100386.80;2084094;85;27678;-58
2022/11/08 10:07:59;;;;;;;11.08;6.17;;;;;;;13.57;80.13;100379.50;2083662;85;29001;-59
2022/11/08 10:11:31;;;;;;;8.30;5.05;;;;;;;13.68;80.13;100382.88;2065820;86;31162;-61
2022/11/08 10:14:57;;;;;;;8.73;4.42;;;;;;;13.78;79.66;100380.00;2014371;87;33358;-58
2022/11/08 10:18:08;;;;;;;8.35;4.80;;;;;;;;;;1980517;89;30667;-58
2022/11/08 10:21:21;;;;;;;8.53;4.35;;;;;;;13.90;78.64;100370.30;1980235;89;27685;-58
2022/11/08 10:24:36;;;;;;;10.85;5.45;;;;;;;13.94;78.68;100371.84;1980146;89;30104;-58
2022/11/08 10:27:42;;;;;;;11.68;4.53;;;;;;;13.99;78.44;100364.81;2033135;87;31128;-59
2022/11/08 10:30:47;;;;;;;10.00;4.60;;;;;;;14.02;78.40;100361.94;2033229;87;33081;-58
2022/11/08 10:33:56;;;;;;;8.28;4.22;;;;;;;14.08;78.16;100357.98;2022226;87;29739;-59
2022/11/08 10:37:05;;;;;;;11.08;4.65;;;;;;;14.11;77.72;100354.60;2000781;89;27728;-60
2022/11/08 10:40:37;;;;;;;7.10;4.45;;;;;;;14.12;77.20;100352.30;2000507;89;30109;-59
2022/11/08 10:43:49;;;;;;;10.93;4.35;;;;;;;14.11;77.45;100343.83;2009072;87;32247;-59
2022/11/08 10:47:02;;;;;;;8.73;3.98;;;;;;;14.20;76.71;100343.72;2033132;87;33578;-59
2022/11/08 10:50:43;;;;;;;8.93;4.22;;;;;;;14.20;76.71;100343.72;2039944;84;29644;-61
2022/11/08 10:53:44;;;;;;;10.10;4.92;;;;;;;14.21;76.30;100336.52;2089893;84;27678;-61
2022/11/08 10:56:54;;;;;;;7.05;3.90;;;;;;;14.21;76.72;100330.62;2064810;86;29354;-59
2022/11/08 11:00:16;;;;;;;8.73;4.20;;;;;;;14.24;76.39;100324.17;2064980;86;31046;-59
2022/11/08 11:03:27;;;;;;;8.93;4.15;;;;;;;14.24;76.39;100324.17;2069330;84;32975;-62
2022/11/08 11:06:33;;;;;;;6.55;3.83;;;;;;;14.25;76.45;100321.39;2099244;84;30257;-59
2022/11/08 11:09:34;;;;;;;10.10;4.65;;;;;;;14.13;75.93;100293.41;2099812;84;27703;-60
2022/11/08 11:12:36;;;;;;;4.90;3.50;;;;;;;14.28;75.90;100325.70;2099553;84;29871;-59
2022/11/08 11:15:51;;;;;;;6.58;3.70;;;;;;;14.30;75.90;100314.84;2068880;84;31521;-59
2022/11/08 11:22:14;;;;;;;8.40;3.55;;;;;;;14.36;75.61;100313.08;2059879;86;29835;-68
2022/11/08 11:25:20;;;;;;;8.45;3.47;;;;;;;14.39;75.69;100307.03;2059070;86;27632;-67
2022/11/08 11:28:24;;;;;;;8.43;3.75;;;;;;;14.42;75.22;100308.64;2060067;86;28675;-68
2022/11/08 11:31:25;;;;;;;7.67;3.80;;;;;;;14.44;75.04;100311.61;2060120;86;31410;-59
2022/11/08 11:34:44;;;;;;;9.65;3.30;;;;;;;14.49;75.12;100307.26;2037384;86;34163;-60
2022/11/08 11:37:47;;;;;;;9.75;3.12;;;;;;;14.53;75.10;100302.05;2011657;88;30176;-65
2022/11/08 11:40:50;;;;;;;5.87;3.15;;;;;;;14.58;74.67;100299.92;2012893;86;27736;-59
2022/11/08 11:44:03;;;;;;;5.40;3.40;;;;;;;14.58;74.67;100299.92;2020742;87;29049;-66
2022/11/08 11:47:23;;;;;;;14.25;3.30;;;;;;;14.59;74.07;100294.91;2044971;86;31392;-64
2022/11/08 11:50:34;;;;;;;6.17;2.98;;;;;;;14.62;74.27;100295.69;2044104;87;34131;-65
2022/11/08 11:53:37;;;;;;;8.93;2.85;;;;;;;14.65;74.08;100295.45;2039126;87;29672;-59
2022/11/08 11:57:17;;;;;;;8.35;3.37;;;;;;;14.65;73.68;100290.94;2012937;86;27817;-64
2022/11/08 12:00:18;;;;;;;9.83;2.62;;;;;;;14.67;73.14;100293.52;2011556;88;29952;-59
2022/11/08 12:03:31;;;;;;;5.83;2.30;;;;;;;14.72;72.86;100284.22;2015624;86;31499;-65
2022/11/08 12:07:00;;;;;;;7.85;2.47;;;;;;;14.72;72.86;100284.22;2056649;86;32982;-60
2022/11/08 12:10:47;;;;;;;7.35;2.55;;;;;;;14.75;72.96;100279.09;2058635;86;29695;-58
2022/11/08 12:14:22;;;;;;;4.78;2.98;;;;;;;14.78;72.78;100277.54;2049481;86;28320;-59
2022/11/08 12:17:59;;;;;;;4.97;2.70;;;;;;;14.81;72.41;100264.31;2011503;87;28687;-58
2022/11/08 12:21:14;;;;;;;5.15;2.37;;;;;;;14.70;72.47;100237.61;2012658;88;30966;-58
2022/11/08 12:24:33;;;;;;;8.15;2.75;;;;;;;14.85;72.15;100259.10;2023157;87;34213;-62
2022/11/08 12:27:49;;;;;;;4.67;2.37;;;;;;;14.86;71.81;100251.39;2060127;86;29991;-64
2022/11/08 12:31:18;;;;;;;6.45;2.60;;;;;;;14.86;71.79;100256.28;2060297;86;27841;-64
2022/11/08 12:34:25;;;;;;;4.58;2.45;;;;;;;14.87;71.47;100253.97;2042640;86;28750;-64
2022/11/08 12:37:56;;;;;;;9.38;2.83;;;;;;;14.88;71.58;100257.05;2010624;88;31280;-64
2022/11/08 12:41:10;;;;;;;6.33;2.37;;;;;;;14.89;71.27;100247.14;2012352;87;35177;-58
2022/11/08 12:44:57;;;;;;;9.43;2.35;;;;;;;14.89;71.38;100237.70;2021608;87;30969;-68
2022/11/08 12:48:37;;;;;;;5.72;2.52;;;;;;;14.89;71.39;100243.09;2041203;87;27645;-60
2022/11/08 12:51:51;;;;;;;8.95;3.12;;;;;;;14.91;71.05;100243.83;1962496;90;29152;-58
2022/11/08 12:55:02;;;;;;;7.10;3.10;;;;;;;14.92;70.85;100237.96;1965991;90;32248;-60
2022/11/08 12:58:21;;;;;;;11.63;4.05;;;;;;;14.93;70.77;100236.49;1966176;90;33206;-59
2022/11/08 13:01:23;;;;;;;6.62;3.85;;;;;;;14.93;70.84;100240.55;1965495;90;29606;-58
2022/11/08 13:04:38;;;;;;;10.78;4.37;;;;;;;14.93;70.23;100232.45;1966027;90;27683;-61
2022/11/08 13:08:09;;;;;;;8.33;2.67;;;;;;;14.82;70.14;100214.30;1966206;90;28651;-59
2022/11/08 13:11:16;;;;;;;4.65;2.52;;;;;;;14.92;69.64;100228.52;1966068;90;31062;-64
2022/11/08 13:14:18;;;;;;;7.17;3.90;;;;;;;14.91;69.82;100225.45;1965731;90;33629;-61
2022/11/08 13:17:26;;;;;;;8.18;2.40;;;;;;;14.89;69.65;100218.82;1966100;90;30022;-61
2022/11/08 13:20:43;;;;;;;12.37;5.53;;;;;;;14.89;69.81;100214.77;1966018;90;28414;-59
2022/11/08 13:23:45;;;;;;;9.90;5.55;;;;;;;14.90;69.37;100216.47;1966576;90;28863;-69
2022/11/08 13:26:48;;;;;;;15.38;5.75;;;;;;;14.88;69.20;100217.09;1965636;90;31459;-63
2022/11/08 13:29:52;;;;;;;13.08;5.20;;;;;;;14.89;69.22;100218.82;2066609;86;32944;-62
2022/11/08 13:33:21;;;;;;;7.85;3.10;;;;;;;14.88;69.41;100212.55;2062080;86;29682;-60
2022/11/08 13:36:37;;;;;;;4.80;3.20;;;;;;;14.87;68.86;100210.81;2053271;84;27719;-65
2022/11/08 13:40:05;;;;;;;6.47;4.00;;;;;;;14.87;68.65;100213.52;2100489;84;29212;-65
2022/11/08 13:43:23;;;;;;;7.92;2.80;;;;;;;14.85;68.31;100212.75;2038525;86;32263;-65
2022/11/08 13:46:30;;;;;;;6.33;2.80;;;;;;;14.83;68.51;100202.55;2092534;84;33081;-63
2022/11/08 13:49:34;;;;;;;7.95;2.70;;;;;;;14.81;68.49;100201.78;2059851;84;31731;-65
2022/11/08 13:52:45;;;;;;;6.85;2.65;;;;;;;14.79;67.97;100197.48;2096734;84;27610;-65
2022/11/08 13:55:56;;;;;;;5.30;2.00;;;;;;;14.74;68.16;100191.91;2053328;84;28658;-63
2022/11/08 13:58:58;;;;;;;4.35;2.70;;;;;;;14.71;67.88;100189.45;2097595;84;31412;-66
2022/11/08 14:02:20;;;;;;;5.15;2.52;;;;;;;14.65;68.02;100188.95;2080323;84;33067;-65
2022/11/08 14:05:25;;;;;;;3.98;1.87;;;;;;;14.61;67.76;100187.45;2099139;84;30107;-66
2022/11/08 14:08:31;;;;;;;5.03;2.10;;;;;;;14.56;67.67;100189.97;2101104;84;27696;-65
2022/11/08 14:11:47;;;;;;;10.98;2.35;;;;;;;14.53;67.77;100192.87;2097532;84;28924;-66
2022/11/08 14:15:19;;;;;;;9.15;4.33;;;;;;;14.47;67.72;100189.73;2100937;84;31249;-65
2022/11/08 14:18:30;;;;;;;8.23;3.30;;;;;;;14.42;67.63;100191.41;2101063;84;33633;-64
2022/11/08 14:21:33;;;;;;;5.30;2.45;;;;;;;14.22;67.72;100163.11;2101127;84;29636;-65
2022/11/08 14:24:36;;;;;;;5.03;2.83;;;;;;;14.28;67.81;100185.58;2079399;84;27817;-62
2022/11/08 14:27:40;;;;;;;6.72;1.92;;;;;;;14.21;67.86;100183.78;2101546;84;29490;-63
2022/11/08 14:30:47;;;;;;;6.87;2.30;;;;;;;14.16;67.79;100184.56;2101387;84;31872;-62
2022/11/08 14:33:49;;;;;;;7.65;2.30;;;;;;;14.08;67.66;100190.47;2101199;84;33058;-69
2022/11/08 14:36:50;;;;;;;5.28;2.00;;;;;;;13.83;67.39;100156.20;2101538;84;29059;-65
2022/11/08 14:39:52;;;;;;;6.90;4.30;;;;;;;13.83;67.39;100156.20;2101671;84;27752;-63
2022/11/08 15:01:50;;;;;;;7.47;2.25;;;;;;;13.25;67.91;100171.09;2381856;74;32185;-64